Alpine, Texas
Current Conditions -  °F | °C
As of 11:35 AM on Tuesday 21 Oct 2014 (Local Time) from KE38 Reporting Station
Overcast Overcast  
Wind Chill: 59°   Ceiling: 9500
Heat Index: 59°   Visibility: 10mi
Dew Point: 54°   Wind: 0mph
Humidity: 82%   Direction: NA
Pressure: 30.2"   Gusts: NA
Location:  30.36°N, 103.66°W
Report Text: KE38 211635Z AUTO 00000KT 10SM SCT080 OVC095 15/12 A3020 RMK AO2 T01510120
Loading
Personal Weather Stations






























Interactive Weather Map
Tropical Storm Tracking
New forecast layout! Learn more

10-Day Weather Forecast

Advertisements
Track Severe Weather on mobile